createdAt,value
2019-04-07T00:00:47.600Z,53.32
2019-04-07T00:02:26.836Z,53.54
2019-04-07T00:04:06.914Z,53.80
2019-04-07T00:05:46.102Z,53.91
2019-04-07T00:07:26.297Z,53.33
2019-04-07T00:09:09.753Z,53.51
2019-04-07T00:10:48.633Z,53.76
2019-04-07T00:12:29.870Z,53.76
2019-04-07T00:14:09.268Z,54.04
2019-04-07T00:15:47.553Z,54.05
2019-04-07T00:17:26.439Z,53.73
2019-04-07T00:19:11.124Z,53.62
2019-04-07T00:20:50.180Z,53.83
2019-04-07T00:22:28.056Z,54.13
2019-04-07T00:24:07.513Z,54.26
2019-04-07T00:25:45.576Z,54.28
2019-04-07T00:27:24.735Z,54.43
2019-04-07T00:29:03.268Z,54.36
2019-04-07T00:30:42.951Z,53.79
2019-04-07T00:32:22.190Z,54.26
2019-04-07T00:34:01.851Z,54.61
2019-04-07T00:35:41.109Z,54.44
2019-04-07T00:37:21.046Z,54.49
2019-04-07T00:39:00.554Z,54.62
2019-04-07T00:40:41.577Z,54.26
2019-04-07T00:42:20.716Z,54.23
2019-04-07T00:44:00.193Z,54.16
2019-04-07T00:45:39.476Z,54.63
2019-04-07T00:47:18.732Z,53.99
2019-04-07T00:48:57.834Z,54.38
2019-04-07T00:50:37.227Z,54.00
2019-04-07T00:52:18.343Z,54.38
2019-04-07T00:53:58.286Z,53.99
2019-04-07T00:55:38.686Z,54.30
2019-04-07T00:57:17.287Z,53.89
2019-04-07T00:58:56.619Z,54.64
2019-04-07T01:00:35.880Z,55.25
2019-04-07T01:02:13.559Z,55.16
2019-04-07T01:03:50.876Z,55.34
2019-04-07T01:05:36.731Z,55.32
2019-04-07T01:07:10.253Z,55.41
2019-04-07T01:08:47.851Z,55.30
2019-04-07T01:10:26.075Z,55.64
2019-04-07T01:12:05.296Z,55.78
2019-04-07T01:13:42.792Z,55.83
2019-04-07T01:15:20.296Z,55.59
2019-04-07T01:16:57.441Z,55.70
2019-04-07T01:18:35.552Z,55.59
2019-04-07T01:20:14.061Z,55.62
2019-04-07T01:21:51.499Z,55.58
2019-04-07T01:23:29.309Z,55.49
2019-04-07T01:25:08.360Z,55.82
2019-04-07T01:26:46.259Z,55.78
2019-04-07T01:28:23.642Z,56.04
2019-04-07T01:30:00.855Z,55.81
2019-04-07T01:31:38.048Z,56.18
2019-04-07T01:33:15.408Z,56.21
2019-04-07T01:34:52.559Z,56.52
2019-04-07T01:36:30.014Z,56.27
2019-04-07T01:38:07.245Z,56.22
2019-04-07T01:39:44.926Z,56.57
2019-04-07T01:41:25.407Z,56.54
2019-04-07T01:43:10.822Z,56.50
2019-04-07T01:44:56.143Z,56.33
2019-04-07T01:46:50.990Z,56.47
2019-04-07T01:48:43.722Z,57.34
2019-04-07T01:50:31.383Z,57.21
2019-04-07T01:52:27.279Z,57.89
2019-04-07T01:54:10.102Z,57.60
2019-04-07T01:55:49.085Z,57.72
2019-04-07T01:57:28.920Z,57.73
2019-04-07T01:59:12.080Z,57.70
2019-04-07T02:00:51.218Z,58.05
2019-04-07T02:02:33.314Z,58.11
2019-04-07T02:04:25.150Z,58.24
2019-04-07T02:06:05.723Z,58.30
2019-04-07T02:07:47.627Z,58.03
2019-04-07T02:09:29.413Z,58.42
2019-04-07T02:11:17.127Z,58.75
2019-04-07T02:13:05.230Z,58.85
2019-04-07T02:14:45.790Z,58.96
2019-04-07T02:16:27.861Z,58.88
2019-04-07T02:18:16.488Z,58.91
2019-04-07T02:20:01.432Z,59.69
2019-04-07T02:21:50.539Z,59.83
2019-04-07T02:23:49.351Z,59.44
2019-04-07T02:25:34.068Z,59.73
2019-04-07T02:27:29.418Z,60.16
2019-04-07T02:29:13.955Z,59.58
2019-04-07T02:31:09.668Z,59.42
2019-04-07T02:33:07.010Z,60.06
2019-04-07T02:34:45.857Z,60.19
2019-04-07T02:36:31.958Z,60.29
2019-04-07T02:38:17.890Z,61.20
2019-04-07T02:39:57.733Z,60.60
2019-04-07T02:41:44.776Z,60.19
2019-04-07T02:43:25.628Z,60.14
2019-04-07T02:45:10.963Z,60.36
2019-04-07T02:47:06.536Z,60.54
2019-04-07T02:48:51.373Z,60.79
2019-04-07T02:50:45.245Z,61.05
2019-04-07T02:52:27.806Z,61.14
2019-04-07T02:54:23.292Z,61.41
2019-04-07T02:56:07.785Z,61.54
2019-04-07T02:57:50.645Z,61.22
2019-04-07T02:59:44.861Z,61.02
2019-04-07T03:01:32.995Z,61.31
2019-04-07T03:03:21.126Z,61.45
2019-04-07T03:05:16.507Z,61.23
2019-04-07T03:07:11.262Z,61.43
2019-04-07T03:08:57.167Z,61.73
2019-04-07T03:10:39.167Z,62.02
2019-04-07T03:12:18.983Z,61.86
2019-04-07T03:14:14.646Z,62.44
2019-04-07T03:16:00.519Z,62.18
2019-04-07T03:17:54.824Z,62.28
2019-04-07T03:19:35.032Z,62.12
2019-04-07T03:21:30.981Z,62.15
2019-04-07T03:23:20.352Z,62.38
2019-04-07T03:25:00.194Z,62.04
2019-04-07T03:26:55.685Z,61.84
2019-04-07T03:28:36.477Z,61.96
2019-04-07T03:30:20.780Z,61.55
2019-04-07T03:32:05.656Z,61.60
2019-04-07T03:34:01.954Z,61.34
2019-04-07T03:36:01.106Z,61.48
2019-04-07T03:37:53.141Z,61.21
2019-04-07T03:39:41.353Z,61.03
2019-04-07T03:41:30.757Z,61.40
2019-04-07T03:43:10.862Z,60.82
2019-04-07T03:44:51.310Z,60.83
2019-04-07T03:46:30.597Z,61.00
2019-04-07T03:48:12.163Z,61.13
2019-04-07T03:49:55.237Z,60.61
2019-04-07T03:51:37.749Z,60.06
2019-04-07T03:53:20.156Z,60.23
2019-04-07T03:54:59.951Z,59.89
2019-04-07T03:56:45.507Z,59.99
2019-04-07T03:58:36.377Z,59.93
2019-04-07T04:00:58.775Z,60.36
2019-04-07T04:02:37.977Z,59.45
2019-04-07T04:04:27.471Z,59.41
2019-04-07T04:06:22.384Z,59.05
2019-04-07T04:08:02.142Z,58.53
2019-04-07T04:09:44.078Z,58.06
2019-04-07T04:11:25.921Z,58.76
2019-04-07T04:13:07.562Z,58.18
2019-04-07T04:14:54.720Z,58.01
2019-04-07T04:16:32.794Z,56.81
2019-04-07T04:18:10.144Z,56.34
2019-04-07T04:19:48.167Z,57.27
2019-04-07T04:21:25.957Z,56.50
2019-04-07T04:23:03.966Z,56.31
2019-04-07T04:24:42.180Z,56.15
2019-04-07T04:26:19.800Z,55.13
2019-04-07T04:28:02.623Z,54.08
2019-04-07T04:29:40.082Z,55.25
2019-04-07T04:31:17.915Z,54.06
2019-04-07T04:32:55.468Z,55.04
2019-04-07T04:34:33.021Z,54.83
2019-04-07T04:36:13.639Z,54.26
2019-04-07T04:37:53.409Z,53.99
2019-04-07T04:39:35.733Z,53.16
2019-04-07T04:41:13.315Z,54.43
2019-04-07T04:42:51.792Z,54.36
2019-04-07T04:44:29.991Z,53.83
2019-04-07T04:46:42.618Z,54.15
2019-04-07T04:47:57.687Z,54.18
2019-04-07T04:49:35.761Z,55.11
2019-04-07T04:51:15.101Z,54.24
2019-04-07T04:52:55.151Z,54.56
2019-04-07T04:54:33.396Z,53.81
2019-04-07T04:56:10.980Z,54.65
2019-04-07T04:57:49.869Z,54.47
2019-04-07T04:59:28.194Z,53.71
2019-04-07T05:01:06.367Z,53.31
2019-04-07T05:02:44.456Z,52.36
2019-04-07T05:04:21.777Z,52.55
2019-04-07T05:05:59.095Z,51.50
2019-04-07T05:07:51.682Z,51.95
2019-04-07T05:09:20.049Z,51.54
2019-04-07T05:10:57.826Z,51.26
2019-04-07T05:12:35.571Z,51.62
2019-04-07T05:14:13.048Z,51.53
2019-04-07T05:15:51.286Z,51.96
2019-04-07T05:17:28.876Z,50.55
2019-04-07T05:19:06.302Z,50.08
2019-04-07T05:20:44.322Z,50.96
2019-04-07T05:22:22.561Z,50.09
2019-04-07T05:24:00.291Z,50.80
2019-04-07T05:25:38.030Z,50.93
2019-04-07T05:27:16.463Z,48.74
2019-04-07T05:29:03.342Z,50.09
2019-04-07T05:30:41.453Z,49.05
2019-04-07T05:32:19.953Z,49.65
2019-04-07T05:34:01.883Z,49.13
2019-04-07T05:35:40.468Z,48.64
2019-04-07T05:37:18.826Z,48.00
2019-04-07T05:38:57.488Z,47.77
2019-04-07T05:40:35.689Z,47.15
2019-04-07T05:42:14.657Z,48.69
2019-04-07T05:43:52.608Z,47.71
2019-04-07T05:45:30.573Z,47.60
2019-04-07T05:47:10.840Z,47.50
2019-04-07T05:48:50.487Z,48.08
2019-04-07T05:50:33.540Z,47.17
2019-04-07T05:52:17.379Z,47.96
2019-04-07T05:53:55.520Z,48.73
2019-04-07T05:55:33.749Z,49.27
2019-04-07T05:57:11.936Z,48.27
2019-04-07T05:58:50.312Z,49.04
2019-04-07T06:00:28.639Z,49.11
2019-04-07T06:02:08.059Z,47.61
2019-04-07T06:03:46.737Z,48.65
2019-04-07T06:05:25.448Z,48.36
2019-04-07T06:07:03.664Z,48.19
2019-04-07T06:08:41.350Z,48.18
2019-04-07T06:10:22.864Z,48.67
2019-04-07T06:11:58.851Z,47.33
2019-04-07T06:13:36.762Z,46.94
2019-04-07T06:15:22.189Z,46.90
2019-04-07T06:17:01.269Z,46.89
2019-04-07T06:18:38.910Z,46.32
2019-04-07T06:20:17.831Z,45.79
2019-04-07T06:21:56.965Z,45.26
2019-04-07T06:23:35.427Z,45.31
2019-04-07T06:25:13.749Z,46.58
2019-04-07T06:26:52.149Z,45.87
2019-04-07T06:28:30.420Z,46.22
2019-04-07T06:30:10.860Z,47.33
2019-04-07T06:31:49.509Z,46.49
2019-04-07T06:33:27.545Z,45.97
2019-04-07T06:35:07.541Z,45.48
2019-04-07T06:36:58.171Z,45.57
2019-04-07T06:38:43.614Z,45.93
2019-04-07T06:40:20.670Z,45.04
2019-04-07T06:42:01.385Z,46.72
2019-04-07T06:43:40.254Z,44.99
2019-04-07T06:45:22.784Z,44.96
2019-04-07T06:47:21.496Z,45.85
2019-04-07T06:49:11.300Z,43.95
2019-04-07T06:50:56.611Z,44.17
2019-04-07T06:52:39.575Z,43.15
2019-04-07T06:54:22.315Z,44.10
2019-04-07T06:56:11.072Z,43.20
2019-04-07T06:58:06.101Z,44.20
2019-04-07T07:00:11.150Z,42.82
2019-04-07T07:01:59.131Z,42.89
2019-04-07T07:03:38.916Z,42.05
2019-04-07T07:05:36.258Z,41.74
2019-04-07T07:07:19.961Z,42.49
2019-04-07T07:09:13.897Z,41.72
2019-04-07T07:10:56.189Z,40.36
2019-04-07T07:12:40.800Z,40.18
2019-04-07T07:14:32.853Z,40.18
2019-04-07T07:16:09.576Z,39.95
2019-04-07T07:17:51.064Z,38.86
2019-04-07T07:19:33.366Z,40.26
2019-04-07T07:21:14.402Z,40.65
2019-04-07T07:22:57.224Z,39.70
2019-04-07T07:24:41.667Z,38.85
2019-04-07T07:26:21.500Z,39.15
2019-04-07T07:27:58.818Z,39.10
2019-04-07T07:29:36.259Z,37.84
2019-04-07T07:31:13.453Z,40.09
2019-04-07T07:32:56.916Z,38.80
2019-04-07T07:34:39.813Z,37.57
2019-04-07T07:36:18.421Z,35.25
2019-04-07T07:37:58.133Z,35.02
2019-04-07T07:39:36.051Z,34.18
2019-04-07T07:41:14.096Z,36.40
2019-04-07T07:42:55.434Z,34.46
2019-04-07T07:44:39.632Z,34.88
2019-04-07T07:46:20.600Z,35.17
2019-04-07T07:47:56.645Z,34.42
2019-04-07T07:49:37.065Z,35.94
2019-04-07T07:51:15.298Z,33.64
2019-04-07T07:52:54.625Z,34.59
2019-04-07T07:54:31.707Z,34.95
2019-04-07T07:56:12.077Z,33.92
2019-04-07T07:57:56.722Z,34.96
2019-04-07T07:59:36.480Z,34.23
2019-04-07T08:01:14.888Z,36.03
2019-04-07T08:02:53.566Z,34.63
2019-04-07T08:04:34.589Z,32.52
2019-04-07T08:06:12.846Z,33.45
2019-04-07T08:07:51.497Z,31.74
2019-04-07T08:09:29.703Z,32.05
2019-04-07T08:11:08.351Z,31.08
2019-04-07T08:12:49.492Z,31.10
2019-04-07T08:14:27.399Z,28.78
2019-04-07T08:16:11.364Z,28.97
2019-04-07T08:17:48.636Z,30.38
2019-04-07T08:19:29.384Z,29.25
2019-04-07T08:21:06.655Z,30.79
2019-04-07T08:22:45.020Z,29.89
2019-04-07T08:24:22.906Z,28.27
2019-04-07T08:26:00.561Z,27.85
2019-04-07T08:27:38.755Z,28.12
2019-04-07T08:29:26.921Z,28.55
2019-04-07T08:31:06.559Z,27.22
2019-04-07T08:32:45.382Z,27.34
2019-04-07T08:34:23.191Z,26.83
2019-04-07T08:36:02.135Z,26.19
2019-04-07T08:37:40.499Z,26.19
2019-04-07T08:39:22.836Z,28.24
2019-04-07T08:40:57.679Z,29.20
2019-04-07T08:42:35.804Z,28.02
2019-04-07T08:44:13.595Z,27.38
2019-04-07T08:45:51.521Z,28.08
2019-04-07T08:47:29.058Z,28.84
2019-04-07T08:49:06.617Z,27.78
2019-04-07T08:50:44.368Z,27.06
2019-04-07T08:52:21.945Z,30.04
2019-04-07T08:54:05.907Z,31.09
2019-04-07T08:55:44.368Z,30.08
2019-04-07T08:57:22.590Z,30.96
2019-04-07T08:59:01.773Z,31.36
2019-04-07T09:00:40.549Z,30.56
2019-04-07T09:02:20.118Z,31.04
2019-04-07T09:03:58.556Z,30.96
2019-04-07T09:05:36.606Z,31.23
2019-04-07T09:07:14.269Z,30.94
2019-04-07T09:08:52.136Z,29.96
2019-04-07T09:10:33.250Z,30.56
2019-04-07T09:12:11.434Z,30.98
2019-04-07T09:15:51.292Z,31.27
2019-04-07T09:17:41.156Z,32.54
2019-04-07T09:19:29.918Z,31.01
2019-04-07T09:21:18.326Z,31.92
2019-04-07T09:23:09.199Z,31.01
2019-04-07T09:25:08.516Z,30.73
2019-04-07T09:26:48.855Z,31.41
2019-04-07T09:28:29.827Z,30.08
2019-04-07T09:30:10.445Z,29.23
2019-04-07T09:32:06.595Z,27.68
2019-04-07T09:34:02.975Z,28.58
2019-04-07T09:36:00.956Z,26.32
2019-04-07T09:37:58.670Z,25.30
2019-04-07T09:40:00.475Z,24.93
2019-04-07T09:41:52.672Z,25.60
2019-04-07T09:43:40.334Z,25.72
2019-04-07T09:45:22.849Z,27.51
2019-04-07T09:47:11.419Z,25.18
2019-04-07T09:49:08.921Z,25.71
2019-04-07T09:50:52.188Z,25.08
2019-04-07T09:52:39.586Z,25.16
2019-04-07T09:54:23.143Z,24.81
2019-04-07T09:56:08.512Z,25.72
2019-04-07T09:57:52.727Z,25.64
2019-04-07T09:59:51.392Z,25.86
2019-04-07T10:01:48.536Z,23.95
2019-04-07T10:03:41.606Z,24.42
2019-04-07T10:05:43.473Z,24.77
2019-04-07T10:07:24.051Z,24.71
2019-04-07T10:09:20.336Z,25.01
2019-04-07T10:11:17.136Z,24.97
2019-04-07T10:13:21.724Z,24.82
2019-04-07T10:15:06.454Z,25.21
2019-04-07T10:16:54.671Z,25.49
2019-04-07T10:18:45.885Z,26.11
2019-04-07T10:20:32.585Z,25.55
2019-04-07T10:22:22.949Z,25.30
2019-04-07T10:24:23.636Z,25.03
2019-04-07T10:26:23.188Z,24.48
2019-04-07T10:28:23.399Z,24.49
2019-04-07T10:30:05.761Z,24.23
2019-04-07T10:32:04.597Z,24.32
2019-04-07T10:34:08.249Z,22.83
2019-04-07T10:36:20.639Z,22.83
2019-04-07T10:38:12.590Z,25.18
2019-04-07T10:40:18.165Z,24.27
2019-04-07T10:42:16.855Z,23.05
2019-04-07T10:43:59.034Z,23.11
2019-04-07T10:45:57.080Z,24.92
2019-04-07T10:47:58.861Z,24.73
2019-04-07T10:49:57.567Z,24.94
2019-04-07T10:51:36.492Z,25.03
2019-04-07T10:53:16.006Z,24.34
2019-04-07T10:54:58.353Z,24.28
2019-04-07T10:56:40.771Z,24.63
2019-04-07T10:58:20.768Z,26.00
2019-04-07T11:00:12.257Z,26.00
2019-04-07T11:01:55.186Z,25.44
2019-04-07T11:03:35.255Z,24.04
2019-04-07T11:05:20.646Z,24.41
2019-04-07T11:07:00.080Z,24.18
2019-04-07T11:09:00.237Z,25.25
2019-04-07T11:11:19.066Z,25.25
2019-04-07T11:13:01.724Z,26.16
2019-04-07T11:14:47.166Z,25.27
2019-04-07T11:16:28.644Z,25.82
2019-04-07T11:18:11.333Z,25.80
2019-04-07T11:19:50.330Z,26.34
2019-04-07T11:21:30.306Z,25.89
2019-04-07T11:23:15.614Z,25.76
2019-04-07T11:24:54.793Z,25.11
2019-04-07T11:26:50.397Z,25.27
2019-04-07T11:28:30.550Z,25.49
2019-04-07T11:30:20.163Z,25.62
2019-04-07T11:32:00.265Z,24.95
2019-04-07T11:33:52.523Z,26.42
2019-04-07T11:35:32.024Z,26.88
2019-04-07T11:37:20.809Z,27.30
2019-04-07T11:39:10.101Z,25.28
2019-04-07T11:40:51.197Z,25.38
2019-04-07T11:42:33.443Z,24.86
2019-04-07T11:44:20.122Z,25.91
2019-04-07T11:46:18.892Z,25.05
2019-04-07T11:50:22.328Z,24.87
2019-04-07T11:52:01.741Z,24.26
2019-04-07T11:53:41.478Z,24.26
2019-04-07T11:55:33.396Z,25.12
2019-04-07T11:57:13.667Z,25.37
2019-04-07T11:58:55.695Z,25.46
2019-04-07T12:00:51.521Z,25.03
2019-04-07T12:02:34.161Z,25.85
2019-04-07T12:04:17.335Z,25.85
2019-04-07T12:06:13.586Z,25.49
2019-04-07T12:08:08.264Z,25.36
2019-04-07T12:11:58.147Z,25.70
2019-04-07T12:13:37.492Z,24.54
2019-04-07T12:15:35.148Z,24.30
2019-04-07T12:17:26.316Z,24.10
2019-04-07T12:19:15.173Z,24.54
2019-04-07T12:21:08.720Z,24.54
2019-04-07T12:22:51.059Z,23.58
2019-04-07T12:24:30.713Z,22.95
2019-04-07T12:26:27.081Z,23.49
2019-04-07T12:28:24.656Z,23.56
2019-04-07T12:30:23.271Z,24.93
2019-04-07T12:32:08.630Z,25.46
2019-04-07T12:33:54.890Z,25.41
2019-04-07T12:35:36.622Z,26.10
2019-04-07T12:37:24.461Z,24.56
2019-04-07T12:39:03.991Z,24.51
2019-04-07T12:41:13.418Z,25.70
2019-04-07T12:45:01.782Z,27.45
2019-04-07T12:46:44.273Z,26.36
2019-04-07T12:48:23.318Z,26.24
2019-04-07T12:50:06.559Z,25.85
2019-04-07T12:51:55.672Z,27.13
2019-04-07T12:53:36.549Z,27.57
2019-04-07T12:55:17.951Z,28.81
2019-04-07T12:56:58.468Z,29.51
2019-04-07T12:58:48.569Z,27.37
2019-04-07T13:02:19.172Z,25.86
2019-04-07T13:06:24.441Z,25.35
2019-04-07T13:08:24.005Z,26.58
2019-04-07T13:10:11.155Z,26.18
2019-04-07T13:11:50.554Z,24.94
2019-04-07T13:13:34.251Z,24.89
2019-04-07T13:15:23.450Z,25.15
2019-04-07T13:17:23.491Z,24.23
2019-04-07T13:19:15.994Z,24.88
2019-04-07T13:20:55.419Z,24.88
2019-04-07T13:22:40.957Z,25.34
2019-04-07T13:24:30.147Z,25.34
2019-04-07T13:26:06.718Z,22.99
2019-04-07T13:28:01.332Z,24.03
2019-04-07T13:29:52.750Z,24.28
2019-04-07T13:31:33.129Z,26.03
2019-04-07T13:33:20.418Z,26.03
2019-04-07T13:35:06.431Z,25.41
2019-04-07T13:36:55.157Z,25.95
2019-04-07T13:38:46.414Z,26.71
2019-04-07T13:40:38.076Z,27.09
2019-04-07T13:42:20.819Z,25.64
2019-04-07T13:44:04.886Z,25.41
2019-04-07T13:45:57.704Z,25.66
2019-04-07T13:47:48.627Z,26.31
2019-04-07T13:49:50.179Z,26.80
2019-04-07T13:51:30.422Z,26.09
2019-04-07T13:53:12.547Z,26.14
2019-04-07T13:54:52.597Z,26.80
2019-04-07T13:56:37.574Z,25.96
2019-04-07T13:58:26.159Z,26.52
2019-04-07T14:00:08.271Z,25.89
2019-04-07T14:01:53.017Z,26.56
2019-04-07T14:03:31.734Z,26.37
2019-04-07T14:05:28.083Z,27.09
2019-04-07T14:07:23.733Z,26.79
2019-04-07T14:09:27.171Z,25.66
2019-04-07T14:11:14.411Z,26.33
2019-04-07T14:13:12.674Z,26.24
2019-04-07T14:15:00.273Z,25.47
2019-04-07T14:16:45.150Z,26.11
2019-04-07T14:18:24.509Z,25.97
2019-04-07T14:20:03.938Z,25.56
2019-04-07T14:21:50.469Z,25.41
2019-04-07T14:23:41.109Z,25.53
2019-04-07T14:25:36.220Z,26.59
2019-04-07T14:27:35.094Z,26.20
2019-04-07T14:29:31.660Z,26.03
2019-04-07T14:31:10.933Z,26.08
2019-04-07T14:32:50.977Z,26.09
2019-04-07T14:34:35.827Z,25.74
2019-04-07T14:36:31.574Z,26.47
2019-04-07T14:38:21.254Z,26.40
2019-04-07T14:40:18.411Z,26.42
2019-04-07T14:42:04.618Z,27.78
2019-04-07T14:43:49.644Z,27.57
2019-04-07T14:45:39.634Z,27.37
2019-04-07T14:47:34.560Z,27.95
2019-04-07T14:49:28.648Z,27.92
2019-04-07T14:51:19.565Z,28.18
2019-04-07T14:53:00.791Z,28.85
2019-04-07T15:23:44.990Z,31.67
2019-04-07T15:25:24.713Z,31.79
2019-04-07T15:27:05.624Z,32.02
2019-04-07T15:28:42.599Z,32.15
2019-04-07T15:30:25.436Z,31.84
2019-04-07T15:32:10.609Z,32.20
2019-04-07T15:33:50.877Z,32.63
2019-04-07T15:35:42.658Z,32.66
2019-04-07T15:37:22.896Z,32.86
2019-04-07T15:39:01.540Z,32.62
2019-04-07T15:40:47.341Z,32.22
2019-04-07T15:42:39.110Z,32.86
2019-04-07T15:44:16.858Z,33.46
2019-04-07T15:45:57.214Z,33.69
2019-04-07T15:47:39.203Z,33.60
2019-04-07T15:49:20.467Z,33.20
2019-04-07T15:51:04.845Z,32.87
2019-04-07T15:52:45.900Z,33.36
2019-04-07T15:54:43.505Z,33.05
2019-04-07T15:56:21.537Z,33.18
2019-04-07T15:58:02.059Z,33.33
2019-04-07T15:59:42.495Z,33.64
2019-04-07T16:01:21.790Z,33.58
2019-04-07T16:03:01.328Z,33.88
2019-04-07T16:04:41.808Z,34.29
2019-04-07T16:06:20.666Z,34.56
2019-04-07T16:08:02.439Z,34.23
2019-04-07T16:09:49.285Z,34.47
2019-04-07T16:11:23.476Z,33.95
2019-04-07T16:13:02.779Z,34.96
2019-04-07T16:14:44.899Z,35.38
2019-04-07T16:16:21.065Z,35.11
2019-04-07T16:18:04.128Z,35.26
2019-04-07T16:19:50.906Z,35.74
2019-04-07T16:21:27.704Z,37.70
2019-04-07T16:23:10.412Z,37.94
2019-04-07T16:24:53.841Z,39.99
2019-04-07T16:26:35.727Z,41.10
2019-04-07T16:28:14.435Z,38.19
2019-04-07T16:29:52.706Z,37.95
2019-04-07T16:31:32.284Z,37.43
2019-04-07T16:33:11.447Z,37.37
2019-04-07T16:34:53.111Z,38.71
2019-04-07T16:36:35.509Z,41.14
2019-04-07T16:38:17.465Z,42.22
2019-04-07T16:39:58.146Z,43.42
2019-04-07T16:41:37.672Z,40.95
2019-04-07T16:43:18.865Z,42.59
2019-04-07T16:44:56.943Z,43.18
2019-04-07T16:46:35.708Z,45.00
2019-04-07T16:48:14.130Z,45.86
2019-04-07T16:49:56.408Z,47.56
2019-04-07T16:51:36.311Z,49.06
2019-04-07T16:53:13.981Z,49.92
2019-04-07T16:54:56.036Z,48.09
2019-04-07T16:56:38.004Z,48.15
2019-04-07T16:58:16.065Z,47.66
2019-04-07T16:59:56.342Z,49.14
2019-04-07T17:01:35.236Z,51.71
2019-04-07T17:03:15.272Z,51.60
2019-04-07T17:04:54.814Z,52.70
2019-04-07T17:06:36.066Z,52.87
2019-04-07T17:08:17.644Z,54.13
2019-04-07T17:10:02.766Z,54.52
2019-04-07T17:11:49.335Z,54.61
2019-04-07T17:13:37.100Z,52.50
2019-04-07T17:15:10.429Z,48.69
2019-04-07T17:16:48.702Z,47.79
2019-04-07T17:18:43.408Z,46.55
2019-04-07T17:20:20.588Z,47.28
2019-04-07T17:21:59.381Z,52.28
2019-04-07T17:23:38.795Z,52.37
2019-04-07T17:25:19.276Z,53.14
2019-04-07T17:26:58.163Z,54.27
2019-04-07T17:28:37.774Z,55.31
2019-04-07T17:30:20.005Z,55.83
2019-04-07T17:32:01.263Z,55.84
2019-04-07T17:33:38.120Z,53.17
2019-04-07T17:35:18.560Z,52.71
2019-04-07T17:36:56.469Z,53.59
2019-04-07T17:38:51.977Z,54.84
2019-04-07T17:40:32.488Z,55.68
2019-04-07T17:42:12.175Z,56.63
2019-04-07T17:44:08.326Z,57.56
2019-04-07T17:45:48.026Z,58.26
2019-04-07T17:47:43.081Z,56.33
2019-04-07T17:49:40.934Z,54.28
2019-04-07T17:51:39.319Z,54.40
2019-04-07T17:53:19.366Z,53.35
2019-04-07T17:55:05.040Z,53.77
2019-04-07T17:57:03.139Z,52.59
2019-04-07T17:58:44.300Z,54.95
2019-04-07T18:00:30.094Z,56.71
2019-04-07T18:02:11.045Z,57.33
2019-04-07T18:03:56.367Z,58.49
2019-04-07T18:05:43.185Z,59.31
2019-04-07T18:07:26.335Z,59.05
2019-04-07T18:09:12.875Z,58.75
2019-04-07T18:10:56.008Z,59.61
2019-04-07T18:12:37.853Z,59.78
2019-04-07T18:14:20.825Z,60.60
2019-04-07T18:16:08.324Z,60.98
2019-04-07T18:18:01.693Z,62.73
2019-04-07T18:19:59.482Z,63.13
2019-04-07T18:21:56.686Z,63.99
2019-04-07T18:23:47.208Z,64.48
2019-04-07T18:25:39.098Z,65.03
2019-04-07T18:27:25.329Z,64.62
2019-04-07T18:29:08.046Z,65.08
2019-04-07T18:30:56.259Z,65.76
2019-04-07T18:32:36.258Z,65.32
2019-04-07T18:34:25.148Z,65.73
2019-04-07T18:36:11.992Z,66.17
2019-04-07T18:38:00.107Z,66.14
2019-04-07T18:39:55.100Z,66.28
2019-04-07T18:41:41.534Z,66.14
2019-04-07T18:43:37.074Z,66.16
2019-04-07T18:45:18.900Z,66.37
2019-04-07T18:47:03.229Z,66.53
2019-04-07T18:48:59.117Z,66.50
2019-04-07T18:50:39.656Z,66.39
2019-04-07T18:52:25.729Z,66.52
2019-04-07T18:54:05.503Z,66.15
2019-04-07T18:56:02.413Z,66.28
2019-04-07T18:57:58.504Z,66.58
2019-04-07T19:02:49.405Z,67.06
2019-04-07T19:04:30.365Z,68.96
2019-04-07T19:06:30.193Z,69.04
2019-04-07T19:08:17.472Z,68.10
2019-04-07T19:10:09.785Z,68.40
2019-04-07T19:11:42.769Z,68.58
2019-04-07T19:13:27.635Z,69.01
2019-04-07T19:15:13.461Z,68.80
2019-04-07T19:16:54.555Z,67.62
2019-04-07T19:18:45.258Z,67.78
2019-04-07T19:20:28.145Z,68.79
2019-04-07T19:22:15.897Z,68.46
2019-04-07T19:23:59.216Z,67.68
2019-04-07T19:25:55.322Z,69.72
2019-04-07T19:27:54.159Z,69.28
2019-04-07T19:29:34.072Z,67.00
2019-04-07T19:31:21.648Z,67.50
2019-04-07T19:33:17.734Z,68.45
2019-04-07T19:35:02.041Z,69.10
2019-04-07T19:36:49.833Z,67.82
2019-04-07T19:38:37.848Z,68.54
2019-04-07T19:40:17.341Z,69.09
2019-04-07T19:42:15.399Z,68.79
2019-04-07T19:44:06.784Z,69.53
2019-04-07T19:46:13.473Z,69.55
2019-04-07T19:47:54.887Z,69.53
2019-04-07T19:49:52.982Z,69.46
2019-04-07T19:51:39.931Z,69.45
2019-04-07T19:53:36.643Z,68.05
2019-04-07T19:55:34.980Z,68.80
2019-04-07T19:57:18.043Z,69.19
2019-04-07T19:58:58.721Z,71.09
2019-04-07T20:00:55.042Z,70.87
2019-04-07T20:02:39.061Z,70.95
2019-04-07T20:04:18.527Z,71.07
2019-04-07T20:06:00.598Z,71.11
2019-04-07T20:07:42.028Z,71.43
2019-04-07T20:09:30.120Z,71.48
2019-04-07T20:11:09.949Z,71.40
2019-04-07T20:12:56.241Z,72.27
2019-04-07T20:14:47.359Z,70.94
2019-04-07T20:16:30.601Z,70.78
2019-04-07T20:18:33.103Z,71.16
2019-04-07T20:22:41.549Z,71.09
2019-04-07T20:24:23.869Z,71.74
2019-04-07T20:26:19.406Z,72.09
2019-04-07T20:27:59.478Z,72.07
2019-04-07T20:30:03.337Z,71.98
2019-04-07T20:31:45.053Z,72.12
2019-04-07T20:33:29.938Z,69.14
2019-04-07T20:35:14.289Z,70.75
2019-04-07T20:37:11.591Z,71.37
2019-04-07T20:38:58.615Z,70.79
2019-04-07T20:40:44.460Z,71.58
2019-04-07T20:42:33.120Z,71.80
2019-04-07T20:44:33.881Z,73.07
2019-04-07T20:46:13.847Z,73.09
2019-04-07T20:48:00.156Z,73.17
2019-04-07T20:49:57.480Z,73.31
2019-04-07T20:51:42.155Z,73.21
2019-04-07T20:53:35.127Z,73.30
2019-04-07T20:55:19.338Z,72.11
2019-04-07T20:57:02.904Z,71.22
2019-04-07T20:58:53.898Z,71.09
2019-04-07T21:00:55.816Z,71.12
2019-04-07T21:02:45.727Z,72.14
2019-04-07T21:04:39.625Z,72.55
2019-04-07T21:06:27.550Z,73.02
2019-04-07T21:08:10.367Z,72.90
2019-04-07T21:09:53.954Z,73.04
2019-04-07T21:11:42.835Z,73.03
2019-04-07T21:13:32.330Z,73.22
2019-04-07T21:15:38.893Z,73.32
2019-04-07T21:17:52.474Z,73.78
2019-04-07T21:19:54.327Z,73.78
2019-04-07T21:21:44.456Z,73.24
2019-04-07T21:23:52.305Z,72.73
2019-04-07T21:25:43.768Z,73.29
2019-04-07T21:27:27.018Z,72.75
2019-04-07T21:29:12.878Z,72.80
2019-04-07T21:30:57.776Z,72.88
2019-04-07T21:32:48.522Z,72.92
2019-04-07T21:34:30.597Z,73.35
2019-04-07T21:36:19.376Z,73.73
2019-04-07T21:38:16.174Z,73.65
2019-04-07T21:40:08.642Z,73.99
2019-04-07T21:41:49.940Z,74.15
2019-04-07T21:43:36.898Z,74.25
2019-04-07T21:45:41.033Z,74.48
2019-04-07T21:47:40.458Z,74.51
2019-04-07T21:49:34.779Z,74.62
2019-04-07T21:51:31.095Z,74.44
2019-04-07T21:53:14.272Z,74.45
2019-04-07T21:55:11.408Z,73.85
2019-04-07T21:57:11.107Z,73.51
2019-04-07T21:58:52.045Z,73.46
2019-04-07T22:00:47.786Z,73.65
2019-04-07T22:02:44.802Z,74.19
2019-04-07T22:04:28.881Z,73.60
2019-04-07T22:06:17.755Z,73.31
2019-04-07T22:08:03.678Z,72.48
2019-04-07T22:09:41.490Z,72.20
2019-04-07T22:11:25.362Z,71.96
2019-04-07T22:13:04.970Z,72.42
2019-04-07T22:14:46.402Z,71.65
2019-04-07T22:16:30.608Z,70.73
2019-04-07T22:18:08.630Z,70.08
2019-04-07T22:19:47.900Z,70.67
2019-04-07T22:21:27.943Z,70.30
2019-04-07T22:23:09.523Z,69.58
2019-04-07T22:24:47.988Z,69.08
2019-04-07T22:26:27.892Z,69.86
2019-04-07T22:28:09.667Z,69.84
2019-04-07T22:29:49.997Z,70.06
2019-04-07T22:31:38.723Z,68.84
2019-04-07T22:33:23.030Z,67.64
2019-04-07T22:35:04.796Z,67.01
2019-04-07T22:36:45.475Z,66.78
2019-04-07T22:38:25.322Z,67.08
2019-04-07T22:40:06.728Z,68.13
2019-04-07T22:41:46.266Z,69.79
2019-04-07T22:43:28.952Z,70.25
2019-04-07T22:45:08.865Z,71.02
2019-04-07T22:46:49.539Z,71.36
2019-04-07T22:48:29.497Z,71.68
2019-04-07T22:50:08.178Z,70.93
2019-04-07T22:51:50.671Z,69.78
2019-04-07T22:53:31.545Z,69.29
2019-04-07T22:55:12.530Z,68.94
2019-04-07T22:56:52.246Z,69.69
2019-04-07T22:58:33.293Z,70.41
2019-04-07T23:00:14.918Z,71.25
2019-04-07T23:01:57.536Z,71.54
2019-04-07T23:03:37.574Z,71.21
2019-04-07T23:05:17.134Z,71.58
2019-04-07T23:06:58.659Z,71.22
2019-04-07T23:08:41.175Z,72.33
2019-04-07T23:10:19.904Z,72.33
2019-04-07T23:12:01.900Z,72.43
2019-04-07T23:13:47.472Z,72.76
2019-04-07T23:15:39.589Z,72.73